sensor_id;sensor_type;location;lat;lon;timestamp;pressure;altitude;pressure_sealevel;temperature
15701;BMP180;7950;42.744;23.174;2023-04-24T00:00:59;94117.19;;;9.30
15701;BMP180;7950;42.744;23.174;2023-04-24T00:03:28;94122.34;;;9.25
15701;BMP180;7950;42.744;23.174;2023-04-24T00:05:57;94133.13;;;9.29
15701;BMP180;7950;42.744;23.174;2023-04-24T00:08:26;94126.81;;;9.25
15701;BMP180;7950;42.744;23.174;2023-04-24T00:10:54;94127.09;;;9.28
15701;BMP180;7950;42.744;23.174;2023-04-24T00:13:23;94128.09;;;9.22
15701;BMP180;7950;42.744;23.174;2023-04-24T00:15:53;94135.13;;;9.22
15701;BMP180;7950;42.744;23.174;2023-04-24T00:18:22;94129.69;;;9.28
15701;BMP180;7950;42.744;23.174;2023-04-24T00:20:50;94123.47;;;9.34
15701;BMP180;7950;42.744;23.174;2023-04-24T00:23:19;94120.84;;;9.34
15701;BMP180;7950;42.744;23.174;2023-04-24T00:25:51;94124.31;;;9.40
15701;BMP180;7950;42.744;23.174;2023-04-24T00:28:19;94130.81;;;9.37
15701;BMP180;7950;42.744;23.174;2023-04-24T00:30:48;94119.19;;;9.23
15701;BMP180;7950;42.744;23.174;2023-04-24T00:33:18;94113.34;;;9.16
15701;BMP180;7950;42.744;23.174;2023-04-24T00:35:46;94117.78;;;9.11
15701;BMP180;7950;42.744;23.174;2023-04-24T00:38:15;94114.41;;;9.15
15701;BMP180;7950;42.744;23.174;2023-04-24T00:40:43;94117.56;;;9.17
15701;BMP180;7950;42.744;23.174;2023-04-24T00:43:12;94121.41;;;9.36
15701;BMP180;7950;42.744;23.174;2023-04-24T00:45:41;94110.66;;;9.33
15701;BMP180;7950;42.744;23.174;2023-04-24T00:48:11;94125.06;;;9.35
15701;BMP180;7950;42.744;23.174;2023-04-24T00:50:42;94110.22;;;9.46
15701;BMP180;7950;42.744;23.174;2023-04-24T00:53:11;94102.84;;;9.38
15701;BMP180;7950;42.744;23.174;2023-04-24T00:55:39;94090.28;;;9.40
15701;BMP180;7950;42.744;23.174;2023-04-24T00:58:08;94093.13;;;9.38
15701;BMP180;7950;42.744;23.174;2023-04-24T01:00:37;94097.28;;;9.34
15701;BMP180;7950;42.744;23.174;2023-04-24T01:03:06;94098.56;;;9.32
15701;BMP180;7950;42.744;23.174;2023-04-24T01:05:36;94096.75;;;9.32
15701;BMP180;7950;42.744;23.174;2023-04-24T01:08:06;94081.34;;;9.36
15701;BMP180;7950;42.744;23.174;2023-04-24T01:10:36;94094.19;;;9.37
15701;BMP180;7950;42.744;23.174;2023-04-24T01:13:05;94087.41;;;9.41
15701;BMP180;7950;42.744;23.174;2023-04-24T01:15:35;94088.72;;;9.44
15701;BMP180;7950;42.744;23.174;2023-04-24T01:18:04;94092.72;;;9.51
15701;BMP180;7950;42.744;23.174;2023-04-24T01:20:34;94080.88;;;9.44
15701;BMP180;7950;42.744;23.174;2023-04-24T01:23:05;94085.34;;;9.43
15701;BMP180;7950;42.744;23.174;2023-04-24T01:25:34;94086.94;;;9.49
15701;BMP180;7950;42.744;23.174;2023-04-24T01:28:03;94083.75;;;9.42
15701;BMP180;7950;42.744;23.174;2023-04-24T01:30:32;94076.94;;;9.41
15701;BMP180;7950;42.744;23.174;2023-04-24T01:33:01;94088.72;;;9.44
15701;BMP180;7950;42.744;23.174;2023-04-24T01:35:29;94082.78;;;9.53
15701;BMP180;7950;42.744;23.174;2023-04-24T01:37:58;94070.66;;;9.42
15701;BMP180;7950;42.744;23.174;2023-04-24T01:40:28;94079.81;;;9.40
15701;BMP180;7950;42.744;23.174;2023-04-24T01:42:58;94076.66;;;9.38
15701;BMP180;7950;42.744;23.174;2023-04-24T01:45:51;94080.81;;;9.34
15701;BMP180;7950;42.744;23.174;2023-04-24T01:48:23;94083.75;;;9.42
15701;BMP180;7950;42.744;23.174;2023-04-24T01:50:51;94080.31;;;9.37
15701;BMP180;7950;42.744;23.174;2023-04-24T01:53:20;94073.69;;;9.29
15701;BMP180;7950;42.744;23.174;2023-04-24T01:55:50;94073.69;;;9.29
15701;BMP180;7950;42.744;23.174;2023-04-24T01:58:19;94085.66;;;9.20
15701;BMP180;7950;42.744;23.174;2023-04-24T02:00:47;94086.66;;;9.14
15701;BMP180;7950;42.744;23.174;2023-04-24T02:03:19;94085.63;;;9.15
15701;BMP180;7950;42.744;23.174;2023-04-24T02:05:47;94084.53;;;9.11
15701;BMP180;7950;42.744;23.174;2023-04-24T02:08:16;94084.03;;;9.14
15701;BMP180;7950;42.744;23.174;2023-04-24T02:10:44;94089.34;;;9.24
15701;BMP180;7950;42.744;23.174;2023-04-24T02:13:14;94079.66;;;9.20
15701;BMP180;7950;42.744;23.174;2023-04-24T02:15:43;94074.31;;;9.09
15701;BMP180;7950;42.744;23.174;2023-04-24T02:18:11;94084.56;;;9.16
15701;BMP180;7950;42.744;23.174;2023-04-24T02:20:40;94077.09;;;8.98
15701;BMP180;7950;42.744;23.174;2023-04-24T02:23:08;94064.47;;;8.90
15701;BMP180;7950;42.744;23.174;2023-04-24T02:25:37;94072.34;;;8.90
15701;BMP180;7950;42.744;23.174;2023-04-24T02:28:09;94058.91;;;8.81
15701;BMP180;7950;42.744;23.174;2023-04-24T02:30:39;94054.94;;;8.79
15701;BMP180;7950;42.744;23.174;2023-04-24T02:33:08;94050.75;;;8.78
15701;BMP180;7950;42.744;23.174;2023-04-24T02:35:37;94057.75;;;8.72
15701;BMP180;7950;42.744;23.174;2023-04-24T02:38:05;94053.28;;;8.68
15701;BMP180;7950;42.744;23.174;2023-04-24T02:40:34;94060.03;;;8.64
15701;BMP180;7950;42.744;23.174;2023-04-24T02:43:02;94058.91;;;8.55
15701;BMP180;7950;42.744;23.174;2023-04-24T02:45:31;94050.16;;;8.44
15701;BMP180;7950;42.744;23.174;2023-04-24T02:48:03;94054.00;;;8.37
15701;BMP180;7950;42.744;23.174;2023-04-24T02:50:31;94053.91;;;8.32
15701;BMP180;7950;42.744;23.174;2023-04-24T02:53:00;94047.41;;;8.34
15701;BMP180;7950;42.744;23.174;2023-04-24T02:55:40;94057.63;;;8.36
15701;BMP180;7950;42.744;23.174;2023-04-24T02:58:08;94059.16;;;8.32
15701;BMP180;7950;42.744;23.174;2023-04-24T03:00:37;94050.22;;;8.28
15701;BMP180;7950;42.744;23.174;2023-04-24T03:03:08;94049.91;;;8.24
15701;BMP180;7950;42.744;23.174;2023-04-24T03:05:37;94047.69;;;8.16
15701;BMP180;7950;42.744;23.174;2023-04-24T03:08:05;94060.19;;;8.31
15701;BMP180;7950;42.744;23.174;2023-04-24T03:10:34;94059.16;;;8.32
15701;BMP180;7950;42.744;23.174;2023-04-24T03:13:02;94053.50;;;8.18
15701;BMP180;7950;42.744;23.174;2023-04-24T03:15:31;94063.06;;;8.13
15701;BMP180;7950;42.744;23.174;2023-04-24T03:18:00;94061.88;;;8.20
15701;BMP180;7950;42.744;23.174;2023-04-24T03:20:31;94061.03;;;8.15
15701;BMP180;7950;42.744;23.174;2023-04-24T03:22:59;94056.28;;;8.12
15701;BMP180;7950;42.744;23.174;2023-04-24T03:25:28;94055.72;;;8.10
15701;BMP180;7950;42.744;23.174;2023-04-24T03:28:01;94047.09;;;8.09
15701;BMP180;7950;42.744;23.174;2023-04-24T03:30:29;94048.91;;;8.09
15701;BMP180;7950;42.744;23.174;2023-04-24T03:32:58;94040.56;;;8.07
15701;BMP180;7950;42.744;23.174;2023-04-24T03:35:27;94048.88;;;8.04
15701;BMP180;7950;42.744;23.174;2023-04-24T03:37:57;94054.03;;;8.20
15701;BMP180;7950;42.744;23.174;2023-04-24T03:40:25;94051.66;;;8.19
15701;BMP180;7950;42.744;23.174;2023-04-24T03:42:55;94054.03;;;8.20
15701;BMP180;7950;42.744;23.174;2023-04-24T03:45:24;94058.59;;;8.30
15701;BMP180;7950;42.744;23.174;2023-04-24T03:47:52;94058.47;;;8.41
15701;BMP180;7950;42.744;23.174;2023-04-24T03:50:21;94059.41;;;8.30
15701;BMP180;7950;42.744;23.174;2023-04-24T03:52:49;94053.16;;;8.31
15701;BMP180;7950;42.744;23.174;2023-04-24T03:55:19;94060.91;;;8.48
15701;BMP180;7950;42.744;23.174;2023-04-24T03:57:48;94048.56;;;8.43
15701;BMP180;7950;42.744;23.174;2023-04-24T04:00:16;94053.78;;;8.43
15701;BMP180;7950;42.744;23.174;2023-04-24T04:02:45;94052.03;;;8.49
15701;BMP180;7950;42.744;23.174;2023-04-24T04:05:14;94054.19;;;8.57
15701;BMP180;7950;42.744;23.174;2023-04-24T04:07:43;94047.00;;;8.69
15701;BMP180;7950;42.744;23.174;2023-04-24T04:10:11;94047.63;;;8.81
15701;BMP180;7950;42.744;23.174;2023-04-24T04:12:41;94039.78;;;8.81
15701;BMP180;7950;42.744;23.174;2023-04-24T04:15:10;94054.50;;;8.87
15701;BMP180;7950;42.744;23.174;2023-04-24T04:17:39;94062.16;;;8.93
15701;BMP180;7950;42.744;23.174;2023-04-24T04:20:08;94063.47;;;8.96
15701;BMP180;7950;42.744;23.174;2023-04-24T04:22:37;94067.94;;;9.00
15701;BMP180;7950;42.744;23.174;2023-04-24T04:25:10;94075.59;;;9.07
15701;BMP180;7950;42.744;23.174;2023-04-24T04:27:42;94070.47;;;9.17
15701;BMP180;7950;42.744;23.174;2023-04-24T04:30:16;94065.03;;;9.24
15701;BMP180;7950;42.744;23.174;2023-04-24T04:32:45;94067.69;;;9.29
15701;BMP180;7950;42.744;23.174;2023-04-24T04:35:13;94055.72;;;9.38
15701;BMP180;7950;42.744;23.174;2023-04-24T04:37:42;94068.56;;;9.39
15701;BMP180;7950;42.744;23.174;2023-04-24T04:40:11;94074.16;;;9.58
15701;BMP180;7950;42.744;23.174;2023-04-24T04:42:41;94074.69;;;9.55
15701;BMP180;7950;42.744;23.174;2023-04-24T04:45:10;94087.00;;;9.59
15701;BMP180;7950;42.744;23.174;2023-04-24T04:47:39;94089.19;;;9.67
15701;BMP180;7950;42.744;23.174;2023-04-24T04:50:09;94094.16;;;9.69
15701;BMP180;7950;42.744;23.174;2023-04-24T04:52:37;94083.97;;;9.72
15701;BMP180;7950;42.744;23.174;2023-04-24T04:55:07;94081.97;;;9.84
15701;BMP180;7950;42.744;23.174;2023-04-24T04:57:35;94079.41;;;9.99
15701;BMP180;7950;42.744;23.174;2023-04-24T05:00:07;94084.22;;;10.12
15701;BMP180;7950;42.744;23.174;2023-04-24T05:02:38;94092.72;;;10.34
15701;BMP180;7950;42.744;23.174;2023-04-24T05:05:08;94094.25;;;10.25
15701;BMP180;7950;42.744;23.174;2023-04-24T05:07:37;94086.38;;;10.25
15701;BMP180;7950;42.744;23.174;2023-04-24T05:10:07;94083.28;;;10.28
15701;BMP180;7950;42.744;23.174;2023-04-24T05:12:35;94081.47;;;10.34
15701;BMP180;7950;42.744;23.174;2023-04-24T05:15:07;94085.69;;;10.40
15701;BMP180;7950;42.744;23.174;2023-04-24T05:17:35;94083.34;;;10.53
15701;BMP180;7950;42.744;23.174;2023-04-24T05:20:07;94074.97;;;10.56
15701;BMP180;7950;42.744;23.174;2023-04-24T05:22:36;94084.19;;;10.64
15701;BMP180;7950;42.744;23.174;2023-04-24T05:25:07;94085.78;;;10.70
15701;BMP180;7950;42.744;23.174;2023-04-24T05:27:36;94090.25;;;10.79
15701;BMP180;7950;42.744;23.174;2023-04-24T05:30:08;94097.13;;;10.90
15701;BMP180;7950;42.744;23.174;2023-04-24T05:32:36;94086.88;;;10.94
15701;BMP180;7950;42.744;23.174;2023-04-24T05:35:05;94081.13;;;11.07
15701;BMP180;7950;42.744;23.174;2023-04-24T05:37:34;94086.13;;;11.18
15701;BMP180;7950;42.744;23.174;2023-04-24T05:40:04;94092.44;;;11.32
15701;BMP180;7950;42.744;23.174;2023-04-24T05:42:33;94091.91;;;11.50
15701;BMP180;7950;42.744;23.174;2023-04-24T05:45:02;94089.09;;;11.62
15701;BMP180;7950;42.744;23.174;2023-04-24T05:47:53;94094.03;;;11.83
15701;BMP180;7950;42.744;23.174;2023-04-24T05:50:22;94089.59;;;11.84
15701;BMP180;7950;42.744;23.174;2023-04-24T05:52:51;94091.66;;;11.87
15701;BMP180;7950;42.744;23.174;2023-04-24T05:55:19;94089.56;;;11.99
15701;BMP180;7950;42.744;23.174;2023-04-24T05:57:48;94085.84;;;12.15
15701;BMP180;7950;42.744;23.174;2023-04-24T06:00:17;94087.38;;;12.31
15701;BMP180;7950;42.744;23.174;2023-04-24T06:02:48;94084.41;;;12.52
15701;BMP180;7950;42.744;23.174;2023-04-24T06:05:18;94093.34;;;12.51
15701;BMP180;7950;42.744;23.174;2023-04-24T06:08:11;94088.34;;;12.50
15701;BMP180;7950;42.744;23.174;2023-04-24T06:10:40;94081.03;;;12.42
15701;BMP180;7950;42.744;23.174;2023-04-24T06:13:09;94089.13;;;12.55
15701;BMP180;7950;42.744;23.174;2023-04-24T06:15:38;94087.75;;;12.73
15701;BMP180;7950;42.744;23.174;2023-04-24T06:18:07;94094.84;;;12.72
15701;BMP180;7950;42.744;23.174;2023-04-24T06:20:38;94095.81;;;12.86
15701;BMP180;7950;42.744;23.174;2023-04-24T06:23:07;94093.16;;;13.01
15701;BMP180;7950;42.744;23.174;2023-04-24T06:25:35;94096.63;;;13.30
15701;BMP180;7950;42.744;23.174;2023-04-24T06:28:04;94089.94;;;13.48
15701;BMP180;7950;42.744;23.174;2023-04-24T06:30:33;94094.22;;;13.39
15701;BMP180;7950;42.744;23.174;2023-04-24T06:33:02;94086.09;;;13.30
15701;BMP180;7950;42.744;23.174;2023-04-24T06:35:48;94094.53;;;13.32
15701;BMP180;7950;42.744;23.174;2023-04-24T06:38:16;94088.16;;;13.38
15701;BMP180;7950;42.744;23.174;2023-04-24T06:40:45;94086.03;;;13.40
15701;BMP180;7950;42.744;23.174;2023-04-24T06:43:13;94086.59;;;13.37
15701;BMP180;7950;42.744;23.174;2023-04-24T06:45:42;94078.78;;;13.56
15701;BMP180;7950;42.744;23.174;2023-04-24T06:48:11;94077.16;;;13.65
15701;BMP180;7950;42.744;23.174;2023-04-24T06:50:39;94079.97;;;13.73
15701;BMP180;7950;42.744;23.174;2023-04-24T06:53:27;94077.81;;;13.80
15701;BMP180;7950;42.744;23.174;2023-04-24T06:55:56;94076.03;;;13.71
15701;BMP180;7950;42.744;23.174;2023-04-24T06:58:25;94068.97;;;13.66
15701;BMP180;7950;42.744;23.174;2023-04-24T07:00:53;94063.13;;;13.69
15701;BMP180;7950;42.744;23.174;2023-04-24T07:03:22;94066.53;;;13.75
15701;BMP180;7950;42.744;23.174;2023-04-24T07:05:50;94065.41;;;13.81
15701;BMP180;7950;42.744;23.174;2023-04-24T07:08:20;94069.72;;;14.00
15701;BMP180;7950;42.744;23.174;2023-04-24T07:10:50;94068.19;;;14.23
15701;BMP180;7950;42.744;23.174;2023-04-24T07:13:19;94062.47;;;14.39
15701;BMP180;7950;42.744;23.174;2023-04-24T07:15:48;94057.41;;;14.43
15701;BMP180;7950;42.744;23.174;2023-04-24T07:18:18;94065.59;;;14.65
15701;BMP180;7950;42.744;23.174;2023-04-24T07:20:46;94063.81;;;14.60
15701;BMP180;7950;42.744;23.174;2023-04-24T07:23:17;94055.53;;;14.67
15701;BMP180;7950;42.744;23.174;2023-04-24T07:25:46;94058.56;;;14.97
15701;BMP180;7950;42.744;23.174;2023-04-24T07:28:16;94056.84;;;15.06
15701;BMP180;7950;42.744;23.174;2023-04-24T07:30:45;94057.72;;;15.02
15701;BMP180;7950;42.744;23.174;2023-04-24T07:33:13;94057.00;;;14.96
15701;BMP180;7950;42.744;23.174;2023-04-24T07:35:45;94055.78;;;15.07
15701;BMP180;7950;42.744;23.174;2023-04-24T07:38:14;94049.28;;;15.18
15701;BMP180;7950;42.744;23.174;2023-04-24T07:40:42;94046.66;;;15.37
15701;BMP180;7950;42.744;23.174;2023-04-24T07:43:13;94039.09;;;15.62
15701;BMP180;7950;42.744;23.174;2023-04-24T07:45:43;94040.53;;;15.87
15701;BMP180;7950;42.744;23.174;2023-04-24T07:48:12;94049.78;;;16.16
15701;BMP180;7950;42.744;23.174;2023-04-24T07:50:43;94036.13;;;16.42
15701;BMP180;7950;42.744;23.174;2023-04-24T07:53:12;94029.63;;;16.48
15701;BMP180;7950;42.744;23.174;2023-04-24T07:55:40;94034.47;;;16.46
15701;BMP180;7950;42.744;23.174;2023-04-24T07:58:09;94038.78;;;16.42
15701;BMP180;7950;42.744;23.174;2023-04-24T08:01:05;94024.91;;;16.44
15701;BMP180;7950;42.744;23.174;2023-04-24T08:03:34;94021.47;;;16.58
15701;BMP180;7950;42.744;23.174;2023-04-24T08:06:03;94022.75;;;16.74
15701;BMP180;7950;42.744;23.174;2023-04-24T08:08:32;94021.72;;;16.97
15701;BMP180;7950;42.744;23.174;2023-04-24T08:11:01;94020.56;;;16.89
15701;BMP180;7950;42.744;23.174;2023-04-24T08:13:29;94017.84;;;16.67
15701;BMP180;7950;42.744;23.174;2023-04-24T08:15:58;94011.47;;;16.82
15701;BMP180;7950;42.744;23.174;2023-04-24T08:18:28;94007.38;;;16.98
15701;BMP180;7950;42.744;23.174;2023-04-24T08:20:56;93994.09;;;17.11
15701;BMP180;7950;42.744;23.174;2023-04-24T08:23:28;94004.13;;;17.36
15701;BMP180;7950;42.744;23.174;2023-04-24T08:25:57;93995.88;;;17.60
15701;BMP180;7950;42.744;23.174;2023-04-24T08:28:25;93993.28;;;17.68
15701;BMP180;7950;42.744;23.174;2023-04-24T08:30:54;93986.97;;;17.56
15701;BMP180;7950;42.744;23.174;2023-04-24T08:33:23;93990.94;;;17.67
15701;BMP180;7950;42.744;23.174;2023-04-24T08:35:53;93983.34;;;17.74
15701;BMP180;7950;42.744;23.174;2023-04-24T08:38:21;93974.28;;;17.75
15701;BMP180;7950;42.744;23.174;2023-04-24T08:40:50;93969.06;;;17.61
15701;BMP180;7950;42.744;23.174;2023-04-24T08:43:22;93960.78;;;17.63
15701;BMP180;7950;42.744;23.174;2023-04-24T08:45:51;93965.22;;;17.67
15701;BMP180;7950;42.744;23.174;2023-04-24T08:48:23;93956.19;;;17.77
15701;BMP180;7950;42.744;23.174;2023-04-24T08:50:59;93971.75;;;18.00
15701;BMP180;7950;42.744;23.174;2023-04-24T08:53:28;93964.00;;;18.12
15701;BMP180;7950;42.744;23.174;2023-04-24T08:55:57;93951.19;;;18.06
15701;BMP180;7950;42.744;23.174;2023-04-24T08:58:27;93952.38;;;18.00
15701;BMP180;7950;42.744;23.174;2023-04-24T09:00:56;93941.75;;;18.00
15701;BMP180;7950;42.744;23.174;2023-04-24T09:04:00;93939.66;;;18.19
15701;BMP180;7950;42.744;23.174;2023-04-24T09:06:32;93937.56;;;18.38
15701;BMP180;7950;42.744;23.174;2023-04-24T09:09:03;93932.41;;;18.41
15701;BMP180;7950;42.744;23.174;2023-04-24T09:11:32;93937.31;;;18.26
15701;BMP180;7950;42.744;23.174;2023-04-24T09:14:01;93932.50;;;18.28
15701;BMP180;7950;42.744;23.174;2023-04-24T09:16:30;93930.16;;;18.18
15701;BMP180;7950;42.744;23.174;2023-04-24T09:19:02;93928.50;;;18.39
15701;BMP180;7950;42.744;23.174;2023-04-24T09:21:34;93919.78;;;18.72
15701;BMP180;7950;42.744;23.174;2023-04-24T09:24:06;93911.34;;;18.96
15701;BMP180;7950;42.744;23.174;2023-04-24T09:26:36;93921.53;;;18.77
15701;BMP180;7950;42.744;23.174;2023-04-24T09:29:05;93911.34;;;18.53
15701;BMP180;7950;42.744;23.174;2023-04-24T09:31:33;93920.88;;;18.46
15701;BMP180;7950;42.744;23.174;2023-04-24T09:34:04;93921.47;;;18.43
15701;BMP180;7950;42.744;23.174;2023-04-24T09:36:38;93916.97;;;18.52
15701;BMP180;7950;42.744;23.174;2023-04-24T09:39:09;93911.66;;;18.60
15701;BMP180;7950;42.744;23.174;2023-04-24T09:41:45;93913.84;;;18.58
15701;BMP180;7950;42.744;23.174;2023-04-24T09:44:16;93911.81;;;18.55
15701;BMP180;7950;42.744;23.174;2023-04-24T09:46:49;93905.06;;;18.49
15701;BMP180;7950;42.744;23.174;2023-04-24T09:49:24;93905.22;;;18.53
15701;BMP180;7950;42.744;23.174;2023-04-24T09:52:03;93903.53;;;18.65
15701;BMP180;7950;42.744;23.174;2023-04-24T09:54:53;93901.06;;;18.86
15701;BMP180;7950;42.744;23.174;2023-04-24T09:57:22;93897.75;;;19.06
15701;BMP180;7950;42.744;23.174;2023-04-24T09:59:53;93898.81;;;19.22
15701;BMP180;7950;42.744;23.174;2023-04-24T10:02:22;93892.44;;;19.23
15701;BMP180;7950;42.744;23.174;2023-04-24T10:04:55;93880.03;;;19.44
15701;BMP180;7950;42.744;23.174;2023-04-24T10:07:27;93877.09;;;19.37
15701;BMP180;7950;42.744;23.174;2023-04-24T10:09:56;93881.31;;;19.38
15701;BMP180;7950;42.744;23.174;2023-04-24T10:12:26;93862.69;;;19.38
15701;BMP180;7950;42.744;23.174;2023-04-24T10:14:57;93852.59;;;19.69
15701;BMP180;7950;42.744;23.174;2023-04-24T10:17:28;93852.97;;;19.88
15701;BMP180;7950;42.744;23.174;2023-04-24T10:19:58;93851.91;;;19.80
15701;BMP180;7950;42.744;23.174;2023-04-24T10:22:30;93845.84;;;19.71
15701;BMP180;7950;42.744;23.174;2023-04-24T10:25:00;93842.63;;;19.49
15701;BMP180;7950;42.744;23.174;2023-04-24T10:27:32;93846.56;;;19.34
15701;BMP180;7950;42.744;23.174;2023-04-24T10:30:03;93846.44;;;19.22
15701;BMP180;7950;42.744;23.174;2023-04-24T10:32:31;93836.28;;;19.33
15701;BMP180;7950;42.744;23.174;2023-04-24T10:35:00;93831.63;;;19.59
15701;BMP180;7950;42.744;23.174;2023-04-24T10:37:37;93839.59;;;19.67
15701;BMP180;7950;42.744;23.174;2023-04-24T10:40:09;93832.03;;;19.78
15701;BMP180;7950;42.744;23.174;2023-04-24T10:42:40;93824.56;;;19.63
15701;BMP180;7950;42.744;23.174;2023-04-24T10:45:17;93820.84;;;19.55
15701;BMP180;7950;42.744;23.174;2023-04-24T10:47:56;93827.41;;;19.58
15701;BMP180;7950;42.744;23.174;2023-04-24T10:50:28;93814.66;;;19.72
15701;BMP180;7950;42.744;23.174;2023-04-24T10:53:14;93816.50;;;19.80
15701;BMP180;7950;42.744;23.174;2023-04-24T10:55:47;93822.63;;;19.80
15701;BMP180;7950;42.744;23.174;2023-04-24T10:58:19;93823.25;;;19.77
15701;BMP180;7950;42.744;23.174;2023-04-24T11:00:58;93821.28;;;19.66
15701;BMP180;7950;42.744;23.174;2023-04-24T11:03:35;93840.75;;;19.49
15701;BMP180;7950;42.744;23.174;2023-04-24T11:06:07;93842.88;;;19.01
15701;BMP180;7950;42.744;23.174;2023-04-24T11:08:44;93858.97;;;18.45
15701;BMP180;7950;42.744;23.174;2023-04-24T11:11:15;93853.16;;;17.62
15701;BMP180;7950;42.744;23.174;2023-04-24T11:14:07;93843.31;;;17.32
15701;BMP180;7950;42.744;23.174;2023-04-24T11:16:42;93854.59;;;17.15
15701;BMP180;7950;42.744;23.174;2023-04-24T11:19:21;93845.66;;;17.33
15701;BMP180;7950;42.744;23.174;2023-04-24T11:21:58;93845.41;;;17.74
15701;BMP180;7950;42.744;23.174;2023-04-24T11:24:37;93847.97;;;18.13
15701;BMP180;7950;42.744;23.174;2023-04-24T11:27:12;93841.97;;;18.38
15701;BMP180;7950;42.744;23.174;2023-04-24T11:29:44;93835.25;;;18.49
15701;BMP180;7950;42.744;23.174;2023-04-24T11:32:22;93823.69;;;18.62
15701;BMP180;7950;42.744;23.174;2023-04-24T11:34:54;93815.56;;;18.84
15701;BMP180;7950;42.744;23.174;2023-04-24T11:37:26;93834.94;;;18.93
15701;BMP180;7950;42.744;23.174;2023-04-24T11:39:58;93820.88;;;18.67
15701;BMP180;7950;42.744;23.174;2023-04-24T11:42:33;93822.75;;;18.41
15701;BMP180;7950;42.744;23.174;2023-04-24T11:45:08;93822.25;;;18.30
15701;BMP180;7950;42.744;23.174;2023-04-24T11:47:38;93819.16;;;18.37
15701;BMP180;7950;42.744;23.174;2023-04-24T11:50:09;93809.78;;;18.39
15701;BMP180;7950;42.744;23.174;2023-04-24T11:52:44;93805.72;;;18.50
15701;BMP180;7950;42.744;23.174;2023-04-24T11:55:26;93802.59;;;18.48
15701;BMP180;7950;42.744;23.174;2023-04-24T11:57:57;93803.69;;;18.64
15701;BMP180;7950;42.744;23.174;2023-04-24T12:00:28;93795.53;;;18.78
15701;BMP180;7950;42.744;23.174;2023-04-24T12:03:06;93793.16;;;18.93
15701;BMP180;7950;42.744;23.174;2023-04-24T12:05:35;93794.41;;;18.96
15701;BMP180;7950;42.744;23.174;2023-04-24T12:08:04;93793.97;;;18.94
15701;BMP180;7950;42.744;23.174;2023-04-24T12:10:36;93794.13;;;18.89
15701;BMP180;7950;42.744;23.174;2023-04-24T12:13:05;93788.19;;;18.83
15701;BMP180;7950;42.744;23.174;2023-04-24T12:15:33;93790.53;;;18.85
15701;BMP180;7950;42.744;23.174;2023-04-24T12:18:04;93778.66;;;18.74
15701;BMP180;7950;42.744;23.174;2023-04-24T12:20:33;93785.09;;;18.64
15701;BMP180;7950;42.744;23.174;2023-04-24T12:23:02;93783.69;;;18.58
15701;BMP180;7950;42.744;23.174;2023-04-24T12:25:34;93775.09;;;18.53
15701;BMP180;7950;42.744;23.174;2023-04-24T12:28:10;93770.56;;;18.62
15701;BMP180;7950;42.744;23.174;2023-04-24T12:30:42;93750.22;;;18.66
15701;BMP180;7950;42.744;23.174;2023-04-24T12:33:24;93745.22;;;18.73
15701;BMP180;7950;42.744;23.174;2023-04-24T12:35:53;93739.47;;;18.71
15701;BMP180;7950;42.744;23.174;2023-04-24T12:38:25;93738.81;;;18.74
15701;BMP180;7950;42.744;23.174;2023-04-24T12:41:04;93739.47;;;18.71
15701;BMP180;7950;42.744;23.174;2023-04-24T12:43:33;93731.81;;;18.69
15701;BMP180;7950;42.744;23.174;2023-04-24T12:46:03;93730.03;;;18.82
15701;BMP180;7950;42.744;23.174;2023-04-24T12:48:31;93731.41;;;18.96
15701;BMP180;7950;42.744;23.174;2023-04-24T12:51:00;93721.66;;;19.17
15701;BMP180;7950;42.744;23.174;2023-04-24T12:53:29;93707.66;;;19.37
15701;BMP180;7950;42.744;23.174;2023-04-24T12:55:58;93704.97;;;19.46
15701;BMP180;7950;42.744;23.174;2023-04-24T12:58:28;93708.19;;;19.51
15701;BMP180;7950;42.744;23.174;2023-04-24T13:00:57;93708.63;;;19.62
15701;BMP180;7950;42.744;23.174;2023-04-24T13:03:26;93697.22;;;19.61
15701;BMP180;7950;42.744;23.174;2023-04-24T13:05:54;93692.66;;;19.62
15701;BMP180;7950;42.744;23.174;2023-04-24T13:08:23;93686.22;;;19.63
15701;BMP180;7950;42.744;23.174;2023-04-24T13:10:51;93687.22;;;19.58
15701;BMP180;7950;42.744;23.174;2023-04-24T13:13:21;93683.00;;;19.57
15701;BMP180;7950;42.744;23.174;2023-04-24T13:15:51;93672.34;;;19.57
15701;BMP180;7950;42.744;23.174;2023-04-24T13:18:19;93659.78;;;19.66
15701;BMP180;7950;42.744;23.174;2023-04-24T13:20:48;93659.81;;;19.78
15701;BMP180;7950;42.744;23.174;2023-04-24T13:23:16;93654.88;;;19.89
15701;BMP180;7950;42.744;23.174;2023-04-24T13:25:45;93652.50;;;19.96
15701;BMP180;7950;42.744;23.174;2023-04-24T13:28:14;93648.53;;;20.02
15701;BMP180;7950;42.744;23.174;2023-04-24T13:30:43;93651.16;;;20.10
15701;BMP180;7950;42.744;23.174;2023-04-24T13:33:13;93650.22;;;20.27
15701;BMP180;7950;42.744;23.174;2023-04-24T13:35:41;93636.94;;;20.39
15701;BMP180;7950;42.744;23.174;2023-04-24T13:38:13;93637.63;;;20.48
15701;BMP180;7950;42.744;23.174;2023-04-24T13:41:32;93628.19;;;20.50
15701;BMP180;7950;42.744;23.174;2023-04-24T13:44:01;93624.13;;;20.65
15701;BMP180;7950;42.744;23.174;2023-04-24T13:46:55;93620.16;;;20.83
15701;BMP180;7950;42.744;23.174;2023-04-24T13:49:32;93618.72;;;20.97
15701;BMP180;7950;42.744;23.174;2023-04-24T13:52:01;93615.50;;;21.16
15701;BMP180;7950;42.744;23.174;2023-04-24T13:54:51;93616.63;;;21.15
15701;BMP180;7950;42.744;23.174;2023-04-24T13:57:20;93606.31;;;21.25
15701;BMP180;7950;42.744;23.174;2023-04-24T13:59:49;93600.81;;;21.34
15701;BMP180;7950;42.744;23.174;2023-04-24T14:02:17;93599.28;;;21.45
15701;BMP180;7950;42.744;23.174;2023-04-24T14:04:48;93587.25;;;21.39
15701;BMP180;7950;42.744;23.174;2023-04-24T14:07:16;93586.72;;;21.33
15701;BMP180;7950;42.744;23.174;2023-04-24T14:09:45;93584.53;;;21.11
15701;BMP180;7950;42.744;23.174;2023-04-24T14:12:14;93580.50;;;20.81
15701;BMP180;7950;42.744;23.174;2023-04-24T14:14:44;93580.16;;;20.71
15701;BMP180;7950;42.744;23.174;2023-04-24T14:17:12;93580.59;;;20.61
15701;BMP180;7950;42.744;23.174;2023-04-24T14:19:41;93578.00;;;20.40
15701;BMP180;7950;42.744;23.174;2023-04-24T14:22:11;93571.69;;;20.45
15701;BMP180;7950;42.744;23.174;2023-04-24T14:24:40;93573.19;;;20.34
15701;BMP180;7950;42.744;23.174;2023-04-24T14:27:09;93568.41;;;20.15
15701;BMP180;7950;42.744;23.174;2023-04-24T14:29:37;93573.53;;;20.00
15701;BMP180;7950;42.744;23.174;2023-04-24T14:32:06;93567.53;;;19.91
15701;BMP180;7950;42.744;23.174;2023-04-24T14:34:36;93571.03;;;19.83